Terminal Aerodrome Forecast
Issued by NWS Kansas City/Pleasant Hill, MO

Home | Current Version | Previous Version | Text Only | Print | Product List | Glossary On
Versions: 1 2 3 4 5 6 7 8 9 10 11 12 13
000
FTUS43 KEAX 271200 AAA
TAFMCI
TAF AMD
KMCI 271207Z 2712/2812 30010G19KT P6SM OVC016
     FM271600 31009KT P6SM SCT025
     FM272300 32007KT P6SM SKC=

USA.gov is the U.S. government's official web portal to all federal, state and local government web resources and services.